Strona główna
METAR-TAF:

METAR-TAF

Lotnisko :

Port lotniczy Kuching

Kuching, Malezja

Szerokość geograficzna: 01-29N, Długość geograficzna: 110-20E, wysokość: 27 m

Aktualna obserwacja pogody

Raport powstał 17 minut temu, godzina 22:00 UTC
Wiatr 1 kt z kierunków zmiennych
Temperatura 24°C
Wilgotność 100%
Ciśnienie 1010 hPa
Widzialność 10 km lub więcej
Mało chmury na wysokości 2000 ft

METAR: WBGG 292200Z VRB01KT 9999 FEW020 24/24 Q1010 NOSIG

czas: 06:17 (22:17 UTC)

Prognoza

Raport powstał 5 godziny i 17 minut temu, godzina 17:00 UTC
Prognoza ważna od 29 godzina 18 UTC do 30 godzina 18 UTC
Wiatr 3 kt z kierunków zmiennych
Widzialność 10 km lub więcej
Mało chmury na wysokości 2000 ft
Przejściowo
od 30 godzina 04 UTC do 30 godzina 08 UTC
Wiatr 10 kt od północny wschód
Widzialność: 5000 m
Mało chmury na wysokości 1500 ft, Cumulonimbus.
burza, deszcz

TAF: WBGG 291700Z 2918/3018 VRB03KT 9999 FEW020 TEMPO 3004/3008 05010KT 5000 TSRA FEW015CB

Obserwacja i prognoza pogody dla ponad 4000 lotnisk (raport METAR i TAF).

Dostępne stacje oznaczono żółtymi i czerwonymi punktami na mapie.

Najedź kursorem aby zobaczyć nazwę stacji.

Kliknij aby zobaczyć obserwacje i prognozy pogody.

Aby zmienić mapę: kliknij na zielony przycisk z czarnym krzyżykiem, aby powiększyć; na zielony przycisk z myślnikiem, aby pomniejszyć; na zielone strzałki, aby przejść do map sąsiednich.


METAR-TAF: